This is the latest recevied weather packets stored in our database for station/object HI3LT-16. If no packets are shown the sender has not sent any weather packets the latest 10 day(s).
| Time | Temp. | Humidity | Pressure | Rain* | Wind** | Luminosity | Snow |
|---|---|---|---|---|---|---|---|
| 1777562664 | 26.11° C | 70% | 1014 hPa | 0 mm | - | - | - |
| 1777562063 | 26.11° C | 71% | 1014 hPa | 0 mm | - | - | - |
| 1777561461 | 26.11° C | 72% | 1014 hPa | 0 mm | - | - | - |
| 1777560860 | 26.11° C | 74% | 1014 hPa | 0 mm | - | - | - |
| 1777560259 | 26.11° C | 74% | 1014 hPa | 0 mm | - | - | - |
| 1777559656 | 26.11° C | 74% | 1014 hPa | 0 mm | - | - | - |
| 1777559053 | 26.11° C | 74% | 1014 hPa | 0 mm | - | - | - |
| 1777558451 | 26.11° C | 74% | 1014 hPa | 0 mm | - | - | - |
| 1777557849 | 26.11° C | 74% | 1014 hPa | 0 mm | - | - | - |
| 1777557247 | 23.89° C | 78% | 1014 hPa | 0 mm | - | - | - |
| 1777556645 | 23.89° C | 78% | 1014 hPa | 0 mm | - | - | - |
| 1777556043 | 22.78° C | 82% | 1014 hPa | 0 mm | - | - | - |
| 1777555440 | 22.78° C | 84% | 1014 hPa | 0 mm | - | - | - |
| 1777554837 | 22.78° C | 88% | 1014 hPa | 0 mm | - | - | - |
| 1777554236 | 22.22° C | 94% | 1014 hPa | 0 mm | - | - | - |
| 1777553635 | 22.22° C | 94% | 1014 hPa | 0 mm | - | - | - |
| 1777553034 | 22.22° C | 94% | 1014 hPa | 0 mm | - | - | - |
| 1777552431 | 20.56° C | 95% | 1014 hPa | 0 mm | - | - | - |
| 1777551829 | 20.56° C | 95% | 1013 hPa | 0 mm | - | - | - |
| 1777551226 | 20.56° C | 96% | 1013 hPa | 0 mm | - | - | - |
| 1777550624 | 20.56° C | 97% | 1013 hPa | 0 mm | - | - | - |
| 1777550023 | 20° C | 99% | 1013 hPa | 0 mm | - | - | - |
| 1777549420 | 20° C | 99% | 1013 hPa | 0 mm | - | - | - |
| 1777548817 | 20° C | 99% | 1013 hPa | 0 mm | - | - | - |
| 1777548215 | 20° C | 98% | 1013 hPa | 0 mm | - | - | - |
* Rain latest hour (hover to see other rain measurements)
** Current wind speed in m/s (hover to see current wind gust speed)